createdAt,value
2022-09-28T00:01:00.650Z,93750.59
2022-09-28T00:03:28.968Z,93751.16
2022-09-28T00:06:02.430Z,93749.72
2022-09-28T00:08:31.652Z,93739.72
2022-09-28T00:10:59.720Z,93734.19
2022-09-28T00:13:28.182Z,93727.31
2022-09-28T00:16:03.970Z,93724.19
2022-09-28T00:18:32.202Z,93719.50
2022-09-28T00:21:04.665Z,93718.88
2022-09-28T00:23:34.540Z,93708.72
2022-09-28T00:26:06.418Z,93709.66
2022-09-28T00:28:34.292Z,93696.88
2022-09-28T00:31:02.243Z,93690.00
2022-09-28T00:33:31.095Z,93697.22
2022-09-28T00:35:59.163Z,93685.38
2022-09-28T00:38:28.337Z,93689.91
2022-09-28T00:40:57.690Z,93670.97
2022-09-28T00:43:26.367Z,93684.72
2022-09-28T00:46:00.242Z,93702.69
2022-09-28T00:48:32.163Z,93696.91
2022-09-28T00:51:02.962Z,93691.88
2022-09-28T00:53:34.735Z,93697.09
2022-09-28T00:56:09.187Z,93695.75
2022-09-28T00:58:44.784Z,93686.16
2022-09-28T01:01:13.342Z,93684.38
2022-09-28T01:03:45.253Z,93682.91
2022-09-28T01:06:19.064Z,93673.34
2022-09-28T01:08:50.547Z,93659.19
2022-09-28T01:11:20.976Z,93654.59
2022-09-28T01:13:52.275Z,93651.03
2022-09-28T01:16:33.727Z,93637.50
2022-09-28T01:19:34.389Z,93641.25
2022-09-28T01:22:21.012Z,93642.47
2022-09-28T01:24:55.398Z,93642.94
2022-09-28T01:27:29.216Z,93633.81
2022-09-28T01:30:05.341Z,93634.50
2022-09-28T01:32:48.918Z,93627.50
2022-09-28T01:35:20.998Z,93621.19
2022-09-28T01:37:54.824Z,93606.31
2022-09-28T01:40:25.783Z,93610.53
2022-09-28T01:42:59.617Z,93602.09
2022-09-28T01:45:31.262Z,93593.38
2022-09-28T01:48:03.723Z,93592.28
2022-09-28T01:50:37.829Z,93574.59
2022-09-28T01:53:11.787Z,93578.72
2022-09-28T01:55:44.916Z,93568.63
2022-09-28T01:58:19.203Z,93565.72
2022-09-28T02:00:52.012Z,93558.03
2022-09-28T02:03:25.540Z,93559.47
2022-09-28T02:06:06.883Z,93553.28
2022-09-28T02:08:37.400Z,93548.69
2022-09-28T02:11:10.729Z,93525.97
2022-09-28T02:13:43.815Z,93534.03
2022-09-28T02:16:22.177Z,93529.16
2022-09-28T02:18:51.955Z,93515.19
2022-09-28T02:21:26.937Z,93521.84
2022-09-28T02:24:00.868Z,93504.38
2022-09-28T02:26:33.005Z,93515.81
2022-09-28T02:29:02.302Z,93500.81
2022-09-28T02:31:30.173Z,93488.50
2022-09-28T02:33:58.808Z,93483.28
2022-09-28T02:36:27.376Z,93483.63
2022-09-28T02:38:55.649Z,93482.63
2022-09-28T02:41:35.365Z,93488.84
2022-09-28T02:44:16.708Z,93476.94
2022-09-28T02:46:52.598Z,93474.19
2022-09-28T02:49:35.934Z,93473.53
2022-09-28T02:52:23.298Z,93465.63
2022-09-28T02:55:20.865Z,93456.41
2022-09-28T02:58:04.563Z,93458.53
2022-09-28T03:00:38.745Z,93464.38
2022-09-28T03:03:18.906Z,93453.81
2022-09-28T03:05:52.620Z,93452.94
2022-09-28T03:08:25.037Z,93437.41
2022-09-28T03:10:59.846Z,93443.50
2022-09-28T03:13:29.002Z,93442.03
2022-09-28T03:16:10.288Z,93428.59
2022-09-28T03:18:38.502Z,93431.16
2022-09-28T03:21:06.547Z,93444.16
2022-09-28T03:23:34.447Z,93445.38
2022-09-28T03:26:03.093Z,93445.75
2022-09-28T03:28:31.581Z,93440.72
2022-09-28T03:30:59.329Z,93426.41
2022-09-28T03:33:28.628Z,93429.63
2022-09-28T03:35:56.429Z,93427.16
2022-09-28T03:38:24.775Z,93428.88
2022-09-28T03:40:56.853Z,93419.31
2022-09-28T03:43:25.786Z,93419.41
2022-09-28T03:45:56.843Z,93411.88
2022-09-28T03:48:31.234Z,93406.53
2022-09-28T03:51:03.076Z,93400.22
2022-09-28T03:53:30.889Z,93418.53
2022-09-28T03:56:04.595Z,93407.88
2022-09-28T03:58:33.511Z,93408.75
2022-09-28T04:01:06.234Z,93397.66
2022-09-28T04:03:34.580Z,93389.66
2022-09-28T04:06:03.787Z,93402.53
2022-09-28T04:08:31.839Z,93398.00
2022-09-28T04:11:00.672Z,93394.66
2022-09-28T04:13:30.469Z,93396.66
2022-09-28T04:16:01.516Z,93392.44
2022-09-28T04:18:35.184Z,93393.09
2022-09-28T04:21:09.254Z,93396.09
2022-09-28T04:23:50.449Z,93391.88
2022-09-28T04:26:20.481Z,93392.66
2022-09-28T04:29:07.190Z,93396.88
2022-09-28T04:31:40.040Z,93406.22
2022-09-28T04:34:08.032Z,93392.34
2022-09-28T04:36:37.573Z,93389.78
2022-09-28T04:39:05.416Z,93391.34
2022-09-28T04:41:34.090Z,93392.78
2022-09-28T04:44:02.605Z,93387.09
2022-09-28T04:46:30.415Z,93381.66
2022-09-28T04:49:26.997Z,93394.53
2022-09-28T04:51:59.024Z,93388.44
2022-09-28T04:54:26.817Z,93382.88
2022-09-28T04:56:55.382Z,93397.31
2022-09-28T04:59:23.304Z,93383.78
2022-09-28T05:01:51.127Z,93392.56
2022-09-28T05:04:37.399Z,93402.88
2022-09-28T05:07:27.859Z,93401.22
2022-09-28T05:09:56.186Z,93398.53
2022-09-28T05:12:24.263Z,93397.88
2022-09-28T05:14:52.132Z,93405.31
2022-09-28T05:17:20.093Z,93405.22
2022-09-28T05:19:59.106Z,93392.56
2022-09-28T05:22:28.575Z,93385.78
2022-09-28T05:24:58.257Z,93377.03
2022-09-28T05:27:26.649Z,93376.03
2022-09-28T05:30:18.915Z,93362.25
2022-09-28T05:33:15.479Z,93345.94
2022-09-28T05:35:51.049Z,93353.94
2022-09-28T05:38:22.555Z,93337.22
2022-09-28T05:40:50.550Z,93348.63
2022-09-28T05:43:18.873Z,93344.19
2022-09-28T05:45:47.361Z,93338.66
2022-09-28T05:48:18.404Z,93345.09
2022-09-28T05:50:51.474Z,93338.88
2022-09-28T05:53:19.431Z,93337.88
2022-09-28T05:55:49.289Z,93336.44
2022-09-28T05:58:18.186Z,93332.22
2022-09-28T06:00:46.126Z,93324.13
2022-09-28T06:03:19.604Z,93305.81
2022-09-28T06:05:47.646Z,93306.25
2022-09-28T06:08:15.660Z,93294.94
2022-09-28T06:10:48.457Z,93287.72
2022-09-28T06:13:16.635Z,93295.59
2022-09-28T06:15:47.622Z,93281.06
2022-09-28T06:18:15.996Z,93288.72
2022-09-28T06:21:05.860Z,93288.84
2022-09-28T06:23:40.598Z,93283.84
2022-09-28T06:26:10.668Z,93290.59
2022-09-28T06:28:38.527Z,93289.72
2022-09-28T06:31:07.477Z,93290.84
2022-09-28T06:33:43.117Z,93292.06
2022-09-28T06:36:11.061Z,93287.16
2022-09-28T06:38:39.178Z,93291.72
2022-09-28T06:41:07.333Z,93291.59
2022-09-28T06:43:36.706Z,93290.72
2022-09-28T06:46:14.191Z,93298.59
2022-09-28T06:48:51.553Z,93298.78
2022-09-28T06:51:39.292Z,93292.50
2022-09-28T06:54:20.024Z,93304.22
2022-09-28T06:56:58.665Z,93310.22
2022-09-28T06:59:27.915Z,93310.38
2022-09-28T07:01:55.804Z,93307.16
2022-09-28T07:04:42.966Z,93310.00
2022-09-28T07:07:29.513Z,93309.44
2022-09-28T07:10:17.906Z,93313.03
2022-09-28T07:13:07.371Z,93320.06
2022-09-28T07:15:47.625Z,93310.16
2022-09-28T07:18:17.782Z,93314.22
2022-09-28T07:20:53.746Z,93329.34
2022-09-28T07:23:22.416Z,93323.91
2022-09-28T07:26:11.514Z,93328.00
2022-09-28T07:28:55.902Z,93337.72
2022-09-28T07:31:51.209Z,93340.78
2022-09-28T07:34:41.221Z,93329.91
2022-09-28T07:37:26.566Z,93334.72
2022-09-28T07:40:23.950Z,93325.47
2022-09-28T07:42:52.135Z,93333.47
2022-09-28T07:45:24.683Z,93338.44
2022-09-28T07:47:56.266Z,93353.63
2022-09-28T07:50:42.742Z,93351.53
2022-09-28T07:53:17.053Z,93347.97
2022-09-28T07:56:05.725Z,93346.97
2022-09-28T07:59:02.858Z,93346.00
2022-09-28T08:01:49.919Z,93350.59
2022-09-28T08:04:20.510Z,93353.84
2022-09-28T08:06:48.381Z,93338.50
2022-09-28T08:09:16.532Z,93349.41
2022-09-28T08:12:04.099Z,93353.97
2022-09-28T08:14:41.670Z,93353.50
2022-09-28T08:17:12.448Z,93348.84
2022-09-28T08:20:05.844Z,93358.06
2022-09-28T08:22:33.762Z,93355.50
2022-09-28T08:25:02.201Z,93355.38
2022-09-28T08:27:30.598Z,93349.34
2022-09-28T08:29:58.387Z,93359.34
2022-09-28T08:32:47.764Z,93361.47
2022-09-28T08:35:35.355Z,93372.53
2022-09-28T08:38:15.269Z,93374.72
2022-09-28T08:41:17.578Z,93364.50
2022-09-28T08:44:23.717Z,93362.03
2022-09-28T08:47:31.723Z,93366.75
2022-09-28T08:50:21.560Z,93370.34
2022-09-28T08:53:18.448Z,93369.69
2022-09-28T08:56:16.058Z,93376.06
2022-09-28T08:58:48.175Z,93389.16
2022-09-28T09:01:18.947Z,93368.25
2022-09-28T09:03:55.813Z,93364.50
2022-09-28T09:06:49.244Z,93390.50
2022-09-28T09:09:41.924Z,93385.16
2022-09-28T09:12:19.264Z,93412.06
2022-09-28T09:15:20.512Z,93461.03
2022-09-28T09:17:59.514Z,93452.63
2022-09-28T09:20:43.971Z,93452.38
2022-09-28T09:23:25.675Z,93444.72
2022-09-28T09:26:00.221Z,93446.28
2022-09-28T09:28:42.026Z,93458.91
2022-09-28T09:31:27.142Z,93448.72
2022-09-28T09:34:13.675Z,93450.25
2022-09-28T09:37:07.449Z,93454.94
2022-09-28T09:40:05.084Z,93448.72
2022-09-28T09:43:10.460Z,93457.16
2022-09-28T09:46:03.094Z,93450.41
2022-09-28T09:48:39.381Z,93454.28
2022-09-28T09:51:18.022Z,93471.47
2022-09-28T09:53:52.264Z,93470.03
2022-09-28T09:56:27.149Z,93479.81
2022-09-28T09:59:12.162Z,93476.91
2022-09-28T10:01:58.574Z,93472.78
2022-09-28T10:04:46.692Z,93472.25
2022-09-28T10:07:25.378Z,93476.84
2022-09-28T10:09:58.266Z,93470.81
2022-09-28T10:12:44.577Z,93477.03
2022-09-28T10:15:20.112Z,93480.72
2022-09-28T10:18:05.926Z,93480.84
2022-09-28T10:21:06.456Z,93491.16
2022-09-28T10:24:02.653Z,93489.84
2022-09-28T10:26:36.545Z,93489.59
2022-09-28T10:29:13.145Z,93495.72
2022-09-28T10:31:44.116Z,93486.16
2022-09-28T10:34:27.140Z,93496.19
2022-09-28T10:37:00.668Z,93495.84
2022-09-28T10:39:37.423Z,93516.94
2022-09-28T10:42:09.035Z,93515.03
2022-09-28T10:44:51.573Z,93504.59
2022-09-28T10:47:45.624Z,93520.94
2022-09-28T10:50:22.241Z,93516.75
2022-09-28T10:52:52.747Z,93517.81
2022-09-28T10:55:40.576Z,93522.28
2022-09-28T10:58:29.776Z,93528.94
2022-09-28T11:01:03.935Z,93512.19
2022-09-28T11:03:34.021Z,93486.16
2022-09-28T11:06:08.873Z,93502.38
2022-09-28T11:08:42.889Z,93503.19
2022-09-28T11:11:19.365Z,93516.78
2022-09-28T11:13:53.452Z,93538.88
2022-09-28T11:16:30.331Z,93525.91
2022-09-28T11:19:06.133Z,93518.22
2022-09-28T11:21:43.414Z,93519.19
2022-09-28T11:24:21.024Z,93532.75
2022-09-28T11:26:53.588Z,93541.25
2022-09-28T11:29:33.545Z,93546.47
2022-09-28T11:32:21.929Z,93545.25
2022-09-28T11:35:19.610Z,93522.63
2022-09-28T11:38:02.284Z,93518.66
2022-09-28T11:41:18.846Z,93538.06
2022-09-28T11:44:13.023Z,93518.69
2022-09-28T11:46:49.943Z,93519.34
2022-09-28T11:49:34.322Z,93526.72
2022-09-28T11:52:09.232Z,93536.72
2022-09-28T11:54:43.711Z,93535.78
2022-09-28T11:57:17.845Z,93534.25
2022-09-28T11:59:54.867Z,93548.56
2022-09-28T12:02:27.571Z,93536.81
2022-09-28T12:05:14.919Z,93541.41
2022-09-28T12:07:52.090Z,93532.91
2022-09-28T12:10:45.532Z,93533.34
2022-09-28T12:13:18.901Z,93546.72
2022-09-28T12:18:45.647Z,93531.63
2022-09-28T12:21:28.931Z,93531.31
2022-09-28T12:24:07.674Z,93537.75
2022-09-28T12:26:43.140Z,93543.19
2022-09-28T12:29:15.357Z,93526.34
2022-09-28T12:31:56.934Z,93523.88
2022-09-28T12:34:24.868Z,93528.56
2022-09-28T12:37:10.041Z,93536.50
2022-09-28T12:39:58.458Z,93537.47
2022-09-28T12:42:44.056Z,93530.69
2022-09-28T12:45:38.902Z,93531.13
2022-09-28T12:49:03.029Z,93526.53
2022-09-28T12:51:48.979Z,93529.78
2022-09-28T12:54:34.795Z,93520.22
2022-09-28T12:57:20.624Z,93518.25
2022-09-28T13:00:02.387Z,93523.88
2022-09-28T13:02:57.086Z,93515.00
2022-09-28T13:05:44.265Z,93508.38
2022-09-28T13:08:18.256Z,93518.19
2022-09-28T13:10:56.195Z,93524.41
2022-09-28T13:13:38.940Z,93523.03
2022-09-28T13:16:17.475Z,93526.47
2022-09-28T13:18:51.316Z,93523.03
2022-09-28T13:21:28.426Z,93535.06
2022-09-28T13:24:14.489Z,93516.16
2022-09-28T13:26:49.011Z,93522.59
2022-09-28T13:29:20.702Z,93528.34
2022-09-28T13:31:51.833Z,93531.00
2022-09-28T13:34:22.524Z,93524.13
2022-09-28T13:37:20.887Z,93520.47
2022-09-28T13:39:52.216Z,93530.69
2022-09-28T13:42:41.627Z,93533.06
2022-09-28T13:45:56.662Z,93547.44
2022-09-28T13:48:38.350Z,93550.84
2022-09-28T13:51:13.973Z,93547.03
2022-09-28T13:54:21.836Z,93545.53
2022-09-28T13:56:57.789Z,93548.72
2022-09-28T13:59:28.053Z,93560.91
2022-09-28T14:02:06.912Z,93553.91
2022-09-28T14:04:57.918Z,93555.59
2022-09-28T14:10:19.942Z,93543.28
2022-09-28T14:12:50.218Z,93548.59
2022-09-28T14:15:44.991Z,93554.38
2022-09-28T14:18:24.609Z,93548.47
2022-09-28T14:21:08.161Z,93563.06
2022-09-28T14:23:48.242Z,93553.06
2022-09-28T14:26:43.001Z,93551.38
2022-09-28T14:29:28.568Z,93536.25
2022-09-28T14:31:58.207Z,93540.72
2022-09-28T14:34:38.444Z,93562.59
2022-09-28T14:37:39.354Z,93553.81
2022-09-28T14:40:35.067Z,93553.28
2022-09-28T14:43:25.933Z,93551.94
2022-09-28T14:46:33.091Z,93552.28
2022-09-28T14:49:02.909Z,93548.06
2022-09-28T14:52:02.891Z,93552.38
2022-09-28T14:54:42.648Z,93560.63
2022-09-28T14:57:18.687Z,93565.38
2022-09-28T14:59:47.733Z,93562.16
2022-09-28T15:02:21.133Z,93564.94
2022-09-28T15:04:53.613Z,93565.59
2022-09-28T15:07:24.617Z,93565.38
2022-09-28T15:09:55.147Z,93557.94
2022-09-28T15:12:27.033Z,93568.38
2022-09-28T15:14:57.250Z,93569.25
2022-09-28T15:17:28.200Z,93577.59
2022-09-28T15:20:13.491Z,93567.81
2022-09-28T15:22:47.545Z,93574.84
2022-09-28T15:25:20.888Z,93576.84
2022-09-28T15:27:54.066Z,93566.59
2022-09-28T15:30:25.957Z,93570.38
2022-09-28T15:32:56.651Z,93567.59
2022-09-28T15:35:26.234Z,93561.38
2022-09-28T15:37:55.864Z,93565.84
2022-09-28T15:40:32.703Z,93562.94
2022-09-28T15:43:02.460Z,93572.16
2022-09-28T15:45:36.187Z,93570.19
2022-09-28T15:48:19.801Z,93577.50
2022-09-28T15:51:01.890Z,93565.16
2022-09-28T15:53:31.296Z,93570.38
2022-09-28T15:56:10.011Z,93583.47
2022-09-28T15:58:39.300Z,93583.38
2022-09-28T16:01:38.278Z,93585.69
2022-09-28T16:04:37.636Z,93594.34
2022-09-28T16:07:18.210Z,93605.19
2022-09-28T16:09:56.499Z,93595.63
2022-09-28T16:12:31.257Z,93596.72
2022-09-28T16:15:03.838Z,93599.72
2022-09-28T16:17:34.020Z,93600.38
2022-09-28T16:20:04.458Z,93596.50
2022-09-28T16:22:33.548Z,93590.28
2022-09-28T16:25:02.260Z,93585.16
2022-09-28T16:27:41.345Z,93592.25
2022-09-28T16:30:21.682Z,93582.56
2022-09-28T16:32:52.658Z,93579.69
2022-09-28T16:35:25.424Z,93578.22
2022-09-28T16:38:05.588Z,93578.22
2022-09-28T16:40:34.328Z,93579.78
2022-09-28T16:43:06.682Z,93576.91
2022-09-28T16:45:36.935Z,93570.69
2022-09-28T16:48:05.794Z,93569.13
2022-09-28T16:50:33.597Z,93571.81
2022-09-28T16:53:30.045Z,93571.47
2022-09-28T16:55:59.401Z,93579.91
2022-09-28T16:58:28.881Z,93576.38
2022-09-28T17:00:56.726Z,93584.16
2022-09-28T17:03:25.759Z,93579.28
2022-09-28T17:05:55.167Z,93580.69
2022-09-28T17:08:25.090Z,93572.16
2022-09-28T17:11:15.924Z,93575.16
2022-09-28T17:13:45.141Z,93576.56
2022-09-28T17:16:15.258Z,93578.97
2022-09-28T17:18:43.106Z,93592.16
2022-09-28T17:21:13.865Z,93586.22
2022-09-28T17:23:41.704Z,93580.25
2022-09-28T17:26:17.865Z,93573.25
2022-09-28T17:28:47.457Z,93569.56
2022-09-28T17:31:17.076Z,93573.47
2022-09-28T17:33:46.181Z,93573.69
2022-09-28T17:36:16.217Z,93571.56
2022-09-28T17:38:44.682Z,93569.25
2022-09-28T17:41:16.826Z,93577.69
2022-09-28T17:43:48.804Z,93572.81
2022-09-28T17:46:27.146Z,93579.53
2022-09-28T17:48:57.622Z,93582.56
2022-09-28T17:51:25.434Z,93580.09
2022-09-28T17:53:54.358Z,93597.41
2022-09-28T17:56:22.307Z,93598.41
2022-09-28T17:58:52.516Z,93593.09
2022-09-28T18:01:20.658Z,93594.50
2022-09-28T18:03:48.888Z,93597.13
2022-09-28T18:06:22.230Z,93599.75
2022-09-28T18:08:50.260Z,93597.84
2022-09-28T18:11:18.329Z,93600.25
2022-09-28T18:13:46.914Z,93604.72
2022-09-28T18:16:16.669Z,93590.69
2022-09-28T18:18:44.649Z,93607.41
2022-09-28T18:21:12.469Z,93607.28
2022-09-28T18:23:40.637Z,93609.19
2022-09-28T18:26:12.907Z,93612.72
2022-09-28T18:28:40.915Z,93616.28
2022-09-28T18:31:09.614Z,93610.59
2022-09-28T18:33:39.379Z,93618.34
2022-09-28T18:36:08.561Z,93628.84
2022-09-28T18:38:36.820Z,93617.81
2022-09-28T18:41:10.054Z,93634.72
2022-09-28T18:43:38.136Z,93633.69
2022-09-28T18:46:10.525Z,93638.38
2022-09-28T18:48:40.485Z,93645.03
2022-09-28T18:51:10.444Z,93661.16
2022-09-28T18:53:38.550Z,93654.72
2022-09-28T18:56:08.018Z,93661.81
2022-09-28T18:58:36.699Z,93663.31
2022-09-28T19:01:29.050Z,93668.25
2022-09-28T19:03:59.955Z,93662.88
2022-09-28T19:06:27.785Z,93656.06
2022-09-28T19:08:56.513Z,93667.41
2022-09-28T19:11:25.020Z,93673.19
2022-09-28T19:13:55.071Z,93665.06
2022-09-28T19:16:25.303Z,93671.59
2022-09-28T19:18:53.874Z,93669.03
2022-09-28T19:21:23.290Z,93677.66
2022-09-28T19:23:52.011Z,93682.34
2022-09-28T19:26:22.880Z,93687.88
2022-09-28T19:28:50.875Z,93674.75
2022-09-28T19:31:19.192Z,93692.41
2022-09-28T19:33:48.068Z,93705.16
2022-09-28T19:36:17.688Z,93691.41
2022-09-28T19:38:47.264Z,93701.03
2022-09-28T19:41:39.538Z,93698.84
2022-09-28T19:44:13.345Z,93710.47
2022-09-28T19:46:41.659Z,93701.13
2022-09-28T19:49:11.605Z,93700.00
2022-09-28T19:51:51.550Z,93705.50
2022-09-28T19:54:36.162Z,93709.41
2022-09-28T19:57:07.414Z,93709.84
2022-09-28T19:59:35.633Z,93708.44
2022-09-28T20:02:03.610Z,93718.84
2022-09-28T20:04:31.485Z,93725.66
2022-09-28T20:06:59.271Z,93734.72
2022-09-28T20:09:27.029Z,93727.25
2022-09-28T20:11:56.984Z,93743.72
2022-09-28T20:14:25.998Z,93744.50
2022-09-28T20:16:54.437Z,93747.03
2022-09-28T20:19:23.246Z,93743.72
2022-09-28T20:21:51.558Z,93748.81
2022-09-28T20:24:19.322Z,93750.13
2022-09-28T20:26:49.479Z,93743.91
2022-09-28T20:29:18.752Z,93750.50
2022-09-28T20:31:46.640Z,93745.97
2022-09-28T20:34:14.474Z,93756.03
2022-09-28T20:36:44.514Z,93750.91
2022-09-28T20:39:13.415Z,93763.84
2022-09-28T20:41:41.241Z,93752.47
2022-09-28T20:44:09.946Z,93752.84
2022-09-28T20:46:39.218Z,93749.50
2022-09-28T20:49:08.144Z,93754.41
2022-09-28T20:51:35.909Z,93761.28
2022-09-28T20:54:03.688Z,93758.72
2022-09-28T20:56:37.518Z,93758.31
2022-09-28T20:59:06.267Z,93757.25
2022-09-28T21:01:34.173Z,93754.97
2022-09-28T21:04:05.426Z,93754.63
2022-09-28T21:06:34.789Z,93758.16
2022-09-28T21:09:03.142Z,93757.59
2022-09-28T21:11:31.260Z,93763.13
2022-09-28T21:14:01.042Z,93759.59
2022-09-28T21:16:30.602Z,93752.56
2022-09-28T21:18:59.198Z,93766.97
2022-09-28T21:21:28.736Z,93761.13
2022-09-28T21:23:57.707Z,93766.59
2022-09-28T21:26:27.403Z,93764.03
2022-09-28T21:28:56.488Z,93764.91
2022-09-28T21:31:28.842Z,93762.69
2022-09-28T21:33:57.345Z,93761.06
2022-09-28T21:36:25.798Z,93761.91
2022-09-28T21:38:55.495Z,93757.25
2022-09-28T21:41:23.627Z,93756.81
2022-09-28T21:43:51.820Z,93756.59
2022-09-28T21:46:19.681Z,93750.72
2022-09-28T21:48:47.565Z,93754.03
2022-09-28T21:51:15.823Z,93750.28
2022-09-28T21:53:43.641Z,93747.75
2022-09-28T21:56:13.848Z,93741.06
2022-09-28T21:58:41.653Z,93735.41
2022-09-28T22:01:12.083Z,93732.53
2022-09-28T22:03:40.235Z,93732.38
2022-09-28T22:06:08.880Z,93727.06
2022-09-28T22:08:37.619Z,93737.69
2022-09-28T22:11:07.781Z,93739.59
2022-09-28T22:13:40.220Z,93741.25
2022-09-28T22:16:08.577Z,93743.88
2022-09-28T22:18:36.496Z,93740.31
2022-09-28T22:21:07.456Z,93750.97
2022-09-28T22:23:36.344Z,93738.16
2022-09-28T22:26:06.323Z,93740.72
2022-09-28T22:28:35.832Z,93772.75
2022-09-28T22:31:03.884Z,93782.88
2022-09-28T22:33:31.717Z,93785.03
2022-09-28T22:35:59.441Z,93771.94
2022-09-28T22:38:28.057Z,93778.81
2022-09-28T22:40:57.619Z,93772.69
2022-09-28T22:43:26.985Z,93776.63
2022-09-28T22:46:04.014Z,93778.47
2022-09-28T22:48:34.381Z,93765.28
2022-09-28T22:51:03.084Z,93765.22
2022-09-28T22:53:31.118Z,93774.94
2022-09-28T22:56:01.419Z,93777.69
2022-09-28T22:58:29.163Z,93773.09
2022-09-28T23:00:57.823Z,93775.28
2022-09-28T23:03:27.018Z,93761.47
2022-09-28T23:05:55.277Z,93764.28
2022-09-28T23:08:23.709Z,93767.03
2022-09-28T23:10:52.355Z,93767.34
2022-09-28T23:13:20.524Z,93766.50
2022-09-28T23:15:56.090Z,93768.25
2022-09-28T23:18:23.903Z,93756.28
2022-09-28T23:20:57.396Z,93752.44
2022-09-28T23:23:25.242Z,93746.78
2022-09-28T23:25:53.557Z,93747.91
2022-09-28T23:28:23.159Z,93745.38
2022-09-28T23:30:51.899Z,93752.44
2022-09-28T23:33:21.359Z,93751.53
2022-09-28T23:35:49.379Z,93748.03
2022-09-28T23:38:19.291Z,93743.94
2022-09-28T23:40:47.863Z,93744.16
2022-09-28T23:43:15.921Z,93740.03
2022-09-28T23:45:43.865Z,93734.28
2022-09-28T23:48:11.696Z,93729.03
2022-09-28T23:50:41.740Z,93733.81
2022-09-28T23:53:10.664Z,93732.94
2022-09-28T23:55:39.863Z,93736.84
2022-09-28T23:58:07.757Z,93725.75
